sensor_id;sensor_type;location;lat;lon;timestamp;pressure;altitude;pressure_sealevel;temperature;humidity
50430;BME280;36359;41.556;-8.418;2022-12-24T00:00:25;100573.00;;;16.06;100.00
50430;BME280;36359;41.556;-8.418;2022-12-24T00:02:51;100576.06;;;16.11;100.00
50430;BME280;36359;41.556;-8.418;2022-12-24T00:05:17;100571.06;;;16.15;100.00
50430;BME280;36359;41.556;-8.418;2022-12-24T00:07:43;100572.47;;;16.10;100.00
50430;BME280;36359;41.556;-8.418;2022-12-24T00:10:09;100575.16;;;16.19;100.00
50430;BME280;36359;41.556;-8.418;2022-12-24T00:12:35;100575.53;;;16.16;100.00
50430;BME280;36359;41.556;-8.418;2022-12-24T00:15:01;100575.88;;;16.12;100.00
50430;BME280;36359;41.556;-8.418;2022-12-24T00:17:27;100581.00;;;16.16;100.00
50430;BME280;36359;41.556;-8.418;2022-12-24T00:19:53;100574.44;;;16.25;100.00
50430;BME280;36359;41.556;-8.418;2022-12-24T00:22:19;100574.69;;;16.15;100.00
50430;BME280;36359;41.556;-8.418;2022-12-24T00:24:44;100578.91;;;16.18;100.00
50430;BME280;36359;41.556;-8.418;2022-12-24T00:27:10;100569.56;;;16.12;100.00
50430;BME280;36359;41.556;-8.418;2022-12-24T00:29:36;100571.38;;;16.20;100.00
50430;BME280;36359;41.556;-8.418;2022-12-24T00:32:02;100569.84;;;16.17;100.00
50430;BME280;36359;41.556;-8.418;2022-12-24T00:34:29;100571.75;;;16.17;100.00
50430;BME280;36359;41.556;-8.418;2022-12-24T00:36:56;100571.78;;;16.08;100.00
50430;BME280;36359;41.556;-8.418;2022-12-24T00:39:21;100567.66;;;16.12;100.00
50430;BME280;36359;41.556;-8.418;2022-12-24T00:41:47;100562.84;;;16.15;100.00
50430;BME280;36359;41.556;-8.418;2022-12-24T00:44:13;100573.09;;;16.21;100.00
50430;BME280;36359;41.556;-8.418;2022-12-24T00:46:39;100575.16;;;16.19;100.00
50430;BME280;36359;41.556;-8.418;2022-12-24T00:49:07;100572.53;;;16.25;100.00
50430;BME280;36359;41.556;-8.418;2022-12-24T00:51:34;100564.69;;;16.22;100.00
50430;BME280;36359;41.556;-8.418;2022-12-24T00:54:00;100564.56;;;16.16;100.00
50430;BME280;36359;41.556;-8.418;2022-12-24T00:56:26;100562.81;;;16.23;100.00
50430;BME280;36359;41.556;-8.418;2022-12-24T00:58:52;100563.41;;;16.10;99.42
50430;BME280;36359;41.556;-8.418;2022-12-24T01:01:18;100561.88;;;16.07;100.00
50430;BME280;36359;41.556;-8.418;2022-12-24T01:03:43;100557.97;;;16.02;100.00
50430;BME280;36359;41.556;-8.418;2022-12-24T01:06:12;100555.72;;;16.05;100.00
50430;BME280;36359;41.556;-8.418;2022-12-24T01:08:39;100562.56;;;16.09;100.00
50430;BME280;36359;41.556;-8.418;2022-12-24T01:11:06;100556.03;;;16.10;100.00
50430;BME280;36359;41.556;-8.418;2022-12-24T01:13:32;100556.00;;;16.19;100.00
50430;BME280;36359;41.556;-8.418;2022-12-24T01:15:58;100557.38;;;16.15;100.00
50430;BME280;36359;41.556;-8.418;2022-12-24T01:18:24;100556.72;;;16.12;100.00
50430;BME280;36359;41.556;-8.418;2022-12-24T01:20:59;100556.41;;;16.07;100.00
50430;BME280;36359;41.556;-8.418;2022-12-24T01:23:26;100551.91;;;16.15;100.00
50430;BME280;36359;41.556;-8.418;2022-12-24T01:25:52;100545.38;;;16.24;100.00
50430;BME280;36359;41.556;-8.418;2022-12-24T01:28:19;100546.84;;;16.26;100.00
50430;BME280;36359;41.556;-8.418;2022-12-24T01:30:46;100546.78;;;16.11;100.00
50430;BME280;36359;41.556;-8.418;2022-12-24T01:33:13;100532.81;;;16.06;100.00
50430;BME280;36359;41.556;-8.418;2022-12-24T01:35:40;100543.63;;;16.23;100.00
50430;BME280;36359;41.556;-8.418;2022-12-24T01:38:06;100537.09;;;16.09;100.00
50430;BME280;36359;41.556;-8.418;2022-12-24T01:40:32;100534.88;;;16.04;100.00
50430;BME280;36359;41.556;-8.418;2022-12-24T01:43:18;100533.41;;;16.17;100.00
50430;BME280;36359;41.556;-8.418;2022-12-24T01:45:52;100523.03;;;16.12;100.00
50430;BME280;36359;41.556;-8.418;2022-12-24T01:51:07;100525.03;;;16.18;100.00
50430;BME280;36359;41.556;-8.418;2022-12-24T01:53:37;100522.94;;;16.20;100.00
50430;BME280;36359;41.556;-8.418;2022-12-24T01:56:05;100525.03;;;16.18;100.00
50430;BME280;36359;41.556;-8.418;2022-12-24T01:58:32;100520.13;;;16.05;100.00
50430;BME280;36359;41.556;-8.418;2022-12-24T02:01:00;100525.78;;;16.12;100.00
50430;BME280;36359;41.556;-8.418;2022-12-24T02:03:26;100524.16;;;16.18;100.00
50430;BME280;36359;41.556;-8.418;2022-12-24T02:05:53;100507.25;;;16.14;100.00
50430;BME280;36359;41.556;-8.418;2022-12-24T02:08:21;100510.66;;;16.16;100.00
50430;BME280;36359;41.556;-8.418;2022-12-24T02:10:47;100497.00;;;16.16;100.00
50430;BME280;36359;41.556;-8.418;2022-12-24T02:13:16;100511.41;;;16.10;100.00
50430;BME280;36359;41.556;-8.418;2022-12-24T02:18:36;100500.34;;;16.03;99.07
50430;BME280;36359;41.556;-8.418;2022-12-24T02:23:56;100496.56;;;16.04;100.00
50430;BME280;36359;41.556;-8.418;2022-12-24T02:29:23;100503.34;;;16.08;100.00
50430;BME280;36359;41.556;-8.418;2022-12-24T02:32:10;100498.25;;;16.05;100.00
50430;BME280;36359;41.556;-8.418;2022-12-24T02:37:30;100490.41;;;16.02;100.00
50430;BME280;36359;41.556;-8.418;2022-12-24T02:39:59;100491.94;;;16.05;99.21
50430;BME280;36359;41.556;-8.418;2022-12-24T02:42:32;100498.09;;;16.07;100.00
50430;BME280;36359;41.556;-8.418;2022-12-24T02:45:20;100497.22;;;16.06;99.03
50430;BME280;36359;41.556;-8.418;2022-12-24T02:47:49;100503.34;;;16.08;100.00
50430;BME280;36359;41.556;-8.418;2022-12-24T02:50:16;100492.13;;;16.03;100.00
50430;BME280;36359;41.556;-8.418;2022-12-24T02:52:44;100497.41;;;16.05;100.00
50430;BME280;36359;41.556;-8.418;2022-12-24T02:55:36;100487.66;;;16.02;99.35
50430;BME280;36359;41.556;-8.418;2022-12-24T03:06:23;100490.03;;;16.05;100.00
50430;BME280;36359;41.556;-8.418;2022-12-24T03:09:01;100491.75;;;16.06;98.32
50430;BME280;36359;41.556;-8.418;2022-12-24T03:11:32;100491.09;;;16.04;98.93
50430;BME280;36359;41.556;-8.418;2022-12-24T03:14:00;100476.34;;;16.05;100.00
50430;BME280;36359;41.556;-8.418;2022-12-24T03:16:27;100477.09;;;15.99;96.69
50430;BME280;36359;41.556;-8.418;2022-12-24T03:18:55;100477.72;;;16.09;100.00
50430;BME280;36359;41.556;-8.418;2022-12-24T03:21:34;100480.09;;;16.12;100.00
50430;BME280;36359;41.556;-8.418;2022-12-24T03:24:01;100474.47;;;16.06;100.00
50430;BME280;36359;41.556;-8.418;2022-12-24T03:26:28;100461.03;;;15.96;99.14
50430;BME280;36359;41.556;-8.418;2022-12-24T03:28:55;100469.88;;;16.06;100.00
50430;BME280;36359;41.556;-8.418;2022-12-24T03:31:21;100459.34;;;15.95;98.44
50430;BME280;36359;41.556;-8.418;2022-12-24T03:33:47;100462.66;;;16.05;99.26
50430;BME280;36359;41.556;-8.418;2022-12-24T03:36:13;100453.66;;;15.97;98.39
50430;BME280;36359;41.556;-8.418;2022-12-24T03:38:39;100447.28;;;16.04;100.00
50430;BME280;36359;41.556;-8.418;2022-12-24T03:41:05;100442.19;;;16.01;97.62
50430;BME280;36359;41.556;-8.418;2022-12-24T03:43:31;100433.72;;;16.11;99.79
50430;BME280;36359;41.556;-8.418;2022-12-24T03:45:57;100424.34;;;16.05;99.03
50430;BME280;36359;41.556;-8.418;2022-12-24T03:48:27;100416.28;;;16.12;99.14
50430;BME280;36359;41.556;-8.418;2022-12-24T03:50:53;100417.78;;;16.15;99.26
50430;BME280;36359;41.556;-8.418;2022-12-24T03:53:18;100412.56;;;16.05;98.02
50430;BME280;36359;41.556;-8.418;2022-12-24T03:55:45;100413.72;;;16.10;99.18
50430;BME280;36359;41.556;-8.418;2022-12-24T03:58:11;100416.28;;;16.12;100.00
50430;BME280;36359;41.556;-8.418;2022-12-24T04:00:37;100414.44;;;16.04;100.00
50430;BME280;36359;41.556;-8.418;2022-12-24T04:03:02;100411.19;;;16.09;98.28
50430;BME280;36359;41.556;-8.418;2022-12-24T04:05:28;100403.97;;;16.08;94.70
50430;BME280;36359;41.556;-8.418;2022-12-24T04:07:54;100410.28;;;16.08;95.86
50430;BME280;36359;41.556;-8.418;2022-12-24T04:10:19;100412.50;;;16.13;99.16
50430;BME280;36359;41.556;-8.418;2022-12-24T04:12:45;100410.59;;;16.13;99.90
50430;BME280;36359;41.556;-8.418;2022-12-24T04:15:11;100401.66;;;15.97;96.69
50430;BME280;36359;41.556;-8.418;2022-12-24T04:17:37;100400.47;;;15.99;96.25
50430;BME280;36359;41.556;-8.418;2022-12-24T04:20:03;100390.00;;;16.03;96.86
50430;BME280;36359;41.556;-8.418;2022-12-24T04:22:29;100392.81;;;15.95;95.87
50430;BME280;36359;41.556;-8.418;2022-12-24T04:24:55;100389.41;;;15.93;95.39
50430;BME280;36359;41.556;-8.418;2022-12-24T04:27:20;100390.19;;;16.01;99.32
50430;BME280;36359;41.556;-8.418;2022-12-24T04:29:47;100381.13;;;16.01;94.33
50430;BME280;36359;41.556;-8.418;2022-12-24T04:32:12;100381.91;;;16.09;99.79
50430;BME280;36359;41.556;-8.418;2022-12-24T04:34:38;100382.44;;;16.05;96.49
50430;BME280;36359;41.556;-8.418;2022-12-24T04:37:04;100378.34;;;16.09;98.73
50430;BME280;36359;41.556;-8.418;2022-12-24T04:39:30;100380.38;;;16.07;96.17
50430;BME280;36359;41.556;-8.418;2022-12-24T04:41:56;100376.50;;;16.01;93.29
50430;BME280;36359;41.556;-8.418;2022-12-24T04:44:22;100372.84;;;16.09;97.18
50430;BME280;36359;41.556;-8.418;2022-12-24T04:46:47;100372.34;;;16.05;98.00
50430;BME280;36359;41.556;-8.418;2022-12-24T04:49:13;100376.50;;;16.01;97.30
50430;BME280;36359;41.556;-8.418;2022-12-24T04:51:39;100372.72;;;16.02;97.20
50430;BME280;36359;41.556;-8.418;2022-12-24T04:54:04;100364.41;;;15.96;96.28
50430;BME280;36359;41.556;-8.418;2022-12-24T04:56:31;100359.97;;;15.95;97.90
50430;BME280;36359;41.556;-8.418;2022-12-24T04:58:58;100360.47;;;15.98;95.86
50430;BME280;36359;41.556;-8.418;2022-12-24T05:01:27;100351.56;;;15.96;98.53
50430;BME280;36359;41.556;-8.418;2022-12-24T05:03:53;100355.34;;;15.95;97.08
50430;BME280;36359;41.556;-8.418;2022-12-24T05:06:26;100358.03;;;16.03;98.38
50430;BME280;36359;41.556;-8.418;2022-12-24T05:08:56;100359.84;;;15.88;94.45
50430;BME280;36359;41.556;-8.418;2022-12-24T05:11:22;100355.72;;;15.92;95.72
50430;BME280;36359;41.556;-8.418;2022-12-24T05:13:48;100362.22;;;15.91;95.02
50430;BME280;36359;41.556;-8.418;2022-12-24T05:16:16;100367.19;;;15.87;97.73
50430;BME280;36359;41.556;-8.418;2022-12-24T05:18:42;100355.53;;;15.94;97.22
50430;BME280;36359;41.556;-8.418;2022-12-24T05:21:19;100361.97;;;16.01;99.64
50430;BME280;36359;41.556;-8.418;2022-12-24T05:23:46;100357.41;;;15.93;94.24
50430;BME280;36359;41.556;-8.418;2022-12-24T05:28:58;100366.66;;;15.92;98.96
50430;BME280;36359;41.556;-8.418;2022-12-24T05:31:27;100351.78;;;15.95;99.41
50430;BME280;36359;41.556;-8.418;2022-12-24T05:33:53;100362.22;;;15.91;97.65
50430;BME280;36359;41.556;-8.418;2022-12-24T05:36:21;100364.00;;;15.84;96.34
50430;BME280;36359;41.556;-8.418;2022-12-24T05:38:47;100352.69;;;15.87;95.51
50430;BME280;36359;41.556;-8.418;2022-12-24T05:41:13;100361.66;;;15.96;99.75
50430;BME280;36359;41.556;-8.418;2022-12-24T05:43:38;100360.22;;;15.85;96.49
50430;BME280;36359;41.556;-8.418;2022-12-24T05:46:07;100353.34;;;15.89;96.30
50430;BME280;36359;41.556;-8.418;2022-12-24T05:48:33;100358.47;;;15.92;97.05
50430;BME280;36359;41.556;-8.418;2022-12-24T05:51:02;100359.38;;;15.84;97.12
50430;BME280;36359;41.556;-8.418;2022-12-24T05:56:06;100355.34;;;15.95;99.85
50430;BME280;36359;41.556;-8.418;2022-12-24T05:58:32;100356.25;;;15.87;94.38
50430;BME280;36359;41.556;-8.418;2022-12-24T06:01:00;100348.06;;;15.87;98.90
50430;BME280;36359;41.556;-8.418;2022-12-24T06:03:26;100346.84;;;15.90;98.33
50430;BME280;36359;41.556;-8.418;2022-12-24T06:06:09;100343.41;;;15.88;96.47
50430;BME280;36359;41.556;-8.418;2022-12-24T06:08:36;100339.53;;;15.82;95.78
50430;BME280;36359;41.556;-8.418;2022-12-24T06:11:05;100345.88;;;15.83;96.59
50430;BME280;36359;41.556;-8.418;2022-12-24T06:13:31;100345.78;;;15.91;98.53
50430;BME280;36359;41.556;-8.418;2022-12-24T06:15:58;100346.38;;;15.86;99.17
50430;BME280;36359;41.556;-8.418;2022-12-24T06:18:24;100341.56;;;15.88;99.75
50430;BME280;36359;41.556;-8.418;2022-12-24T06:20:53;100338.63;;;15.90;97.21
50430;BME280;36359;41.556;-8.418;2022-12-24T06:23:20;100340.53;;;15.89;99.00
50430;BME280;36359;41.556;-8.418;2022-12-24T06:25:46;100337.31;;;15.86;99.22
50430;BME280;36359;41.556;-8.418;2022-12-24T06:28:13;100324.41;;;15.95;100.00
50430;BME280;36359;41.556;-8.418;2022-12-24T06:30:39;100319.94;;;15.94;97.66
50430;BME280;36359;41.556;-8.418;2022-12-24T06:33:05;100325.59;;;15.77;95.71
50430;BME280;36359;41.556;-8.418;2022-12-24T06:35:31;100321.63;;;15.80;99.18
50430;BME280;36359;41.556;-8.418;2022-12-24T06:37:57;100313.78;;;15.77;96.38
50430;BME280;36359;41.556;-8.418;2022-12-24T06:40:25;100325.31;;;15.87;100.00
50430;BME280;36359;41.556;-8.418;2022-12-24T06:42:51;100317.78;;;15.89;98.84
50430;BME280;36359;41.556;-8.418;2022-12-24T06:45:16;100322.47;;;15.80;97.19
50430;BME280;36359;41.556;-8.418;2022-12-24T06:47:42;100326.78;;;15.75;96.94
50430;BME280;36359;41.556;-8.418;2022-12-24T06:50:08;100333.09;;;15.75;97.86
50430;BME280;36359;41.556;-8.418;2022-12-24T06:52:34;100337.44;;;15.70;97.56
50430;BME280;36359;41.556;-8.418;2022-12-24T06:55:00;100331.09;;;15.69;96.86
50430;BME280;36359;41.556;-8.418;2022-12-24T06:57:26;100324.06;;;15.75;100.00
50430;BME280;36359;41.556;-8.418;2022-12-24T06:59:52;100324.94;;;15.67;99.16
50430;BME280;36359;41.556;-8.418;2022-12-24T07:02:18;100316.59;;;15.69;96.71
50430;BME280;36359;41.556;-8.418;2022-12-24T07:04:44;100325.88;;;15.59;95.74
50430;BME280;36359;41.556;-8.418;2022-12-24T07:07:09;100318.97;;;15.72;97.84
50430;BME280;36359;41.556;-8.418;2022-12-24T07:09:35;100322.66;;;15.79;99.01
50430;BME280;36359;41.556;-8.418;2022-12-24T07:12:01;100311.34;;;15.82;98.08
50430;BME280;36359;41.556;-8.418;2022-12-24T07:14:26;100320.94;;;15.78;98.92
50430;BME280;36359;41.556;-8.418;2022-12-24T07:16:52;100311.69;;;15.79;98.60
50430;BME280;36359;41.556;-8.418;2022-12-24T07:19:18;100311.69;;;15.79;97.57
50430;BME280;36359;41.556;-8.418;2022-12-24T07:21:43;100310.06;;;15.70;97.65
50430;BME280;36359;41.556;-8.418;2022-12-24T07:24:09;100284.84;;;15.59;95.85
50430;BME280;36359;41.556;-8.418;2022-12-24T07:26:35;100308.44;;;15.83;99.80
50430;BME280;36359;41.556;-8.418;2022-12-24T07:29:00;100304.75;;;15.91;100.00
50430;BME280;36359;41.556;-8.418;2022-12-24T07:31:26;100302.13;;;15.83;97.86
50430;BME280;36359;41.556;-8.418;2022-12-24T07:33:52;100314.56;;;15.85;99.14
50430;BME280;36359;41.556;-8.418;2022-12-24T07:36:20;100302.47;;;15.80;97.32
50430;BME280;36359;41.556;-8.418;2022-12-24T07:38:46;100305.28;;;15.72;95.64
50430;BME280;36359;41.556;-8.418;2022-12-24T07:41:13;100295.97;;;15.81;99.88
50430;BME280;36359;41.556;-8.418;2022-12-24T07:43:39;100306.91;;;15.81;98.70
50430;BME280;36359;41.556;-8.418;2022-12-24T07:46:04;100306.16;;;15.87;96.65
50430;BME280;36359;41.556;-8.418;2022-12-24T07:48:31;100296.81;;;15.81;99.44
50430;BME280;36359;41.556;-8.418;2022-12-24T07:50:57;100301.81;;;15.78;96.75
50430;BME280;36359;41.556;-8.418;2022-12-24T07:53:27;100316.81;;;15.82;97.21
50430;BME280;36359;41.556;-8.418;2022-12-24T07:55:53;100314.47;;;15.94;99.71
50430;BME280;36359;41.556;-8.418;2022-12-24T07:58:19;100301.22;;;15.82;97.87
50430;BME280;36359;41.556;-8.418;2022-12-24T08:00:45;100307.22;;;15.86;97.40
50430;BME280;36359;41.556;-8.418;2022-12-24T08:03:20;100301.53;;;15.87;97.08
50430;BME280;36359;41.556;-8.418;2022-12-24T08:05:47;100299.47;;;15.89;99.54
50430;BME280;36359;41.556;-8.418;2022-12-24T08:08:13;100306.09;;;15.95;99.07
50430;BME280;36359;41.556;-8.418;2022-12-24T08:10:40;100295.81;;;15.97;97.88
50430;BME280;36359;41.556;-8.418;2022-12-24T08:13:07;100292.72;;;16.00;97.15
50430;BME280;36359;41.556;-8.418;2022-12-24T08:15:33;100296.84;;;15.96;97.98
50430;BME280;36359;41.556;-8.418;2022-12-24T08:17:58;100290.22;;;15.90;97.42
50430;BME280;36359;41.556;-8.418;2022-12-24T08:20:24;100298.84;;;16.02;97.89
50430;BME280;36359;41.556;-8.418;2022-12-24T08:22:51;100296.47;;;15.99;98.29
50430;BME280;36359;41.556;-8.418;2022-12-24T08:25:17;100289.97;;;16.00;99.12
50430;BME280;36359;41.556;-8.418;2022-12-24T08:27:43;100290.25;;;16.05;98.51
50430;BME280;36359;41.556;-8.418;2022-12-24T08:30:09;100286.13;;;16.09;98.88
50430;BME280;36359;41.556;-8.418;2022-12-24T08:32:35;100295.34;;;16.08;97.24
50430;BME280;36359;41.556;-8.418;2022-12-24T08:35:00;100288.47;;;16.12;98.41
50430;BME280;36359;41.556;-8.418;2022-12-24T08:37:26;100300.25;;;15.98;93.90
50430;BME280;36359;41.556;-8.418;2022-12-24T08:39:52;100293.66;;;16.07;96.96
50430;BME280;36359;41.556;-8.418;2022-12-24T08:42:17;100292.97;;;16.05;95.98
50430;BME280;36359;41.556;-8.418;2022-12-24T08:44:44;100296.56;;;16.06;97.86
50430;BME280;36359;41.556;-8.418;2022-12-24T08:47:09;100288.19;;;16.07;98.14
50430;BME280;36359;41.556;-8.418;2022-12-24T08:49:35;100297.06;;;16.09;95.43
50430;BME280;36359;41.556;-8.418;2022-12-24T08:52:01;100293.97;;;16.12;96.39
50430;BME280;36359;41.556;-8.418;2022-12-24T08:54:26;100278.94;;;16.08;96.23
50430;BME280;36359;41.556;-8.418;2022-12-24T08:56:52;100286.97;;;16.10;95.85
50430;BME280;36359;41.556;-8.418;2022-12-24T08:59:18;100268.72;;;16.02;95.62
50430;BME280;36359;41.556;-8.418;2022-12-24T09:01:44;100267.59;;;16.11;98.13
50430;BME280;36359;41.556;-8.418;2022-12-24T09:04:09;100275.44;;;16.15;96.87
50430;BME280;36359;41.556;-8.418;2022-12-24T09:06:35;100276.56;;;16.20;97.90
50430;BME280;36359;41.556;-8.418;2022-12-24T09:09:02;100277.44;;;16.21;96.16
50430;BME280;36359;41.556;-8.418;2022-12-24T09:11:28;100268.47;;;16.27;97.62
50430;BME280;36359;41.556;-8.418;2022-12-24T09:13:54;100269.25;;;16.21;95.66
50430;BME280;36359;41.556;-8.418;2022-12-24T09:16:20;100259.00;;;16.15;94.07
50430;BME280;36359;41.556;-8.418;2022-12-24T09:18:45;100258.63;;;16.18;94.04
50430;BME280;36359;41.556;-8.418;2022-12-24T09:21:13;100255.56;;;16.21;96.28
50430;BME280;36359;41.556;-8.418;2022-12-24T09:23:41;100254.22;;;16.17;94.04
50430;BME280;36359;41.556;-8.418;2022-12-24T09:26:13;100249.78;;;16.30;95.53
50430;BME280;36359;41.556;-8.418;2022-12-24T09:28:40;100245.16;;;16.31;95.60
50430;BME280;36359;41.556;-8.418;2022-12-24T09:31:05;100240.72;;;16.30;93.98
50430;BME280;36359;41.556;-8.418;2022-12-24T09:33:33;100243.09;;;16.33;96.05
50430;BME280;36359;41.556;-8.418;2022-12-24T09:36:00;100251.56;;;16.38;95.58
50430;BME280;36359;41.556;-8.418;2022-12-24T09:38:25;100256.09;;;16.31;94.11
50430;BME280;36359;41.556;-8.418;2022-12-24T09:40:53;100256.56;;;16.34;94.92
50430;BME280;36359;41.556;-8.418;2022-12-24T09:43:21;100262.88;;;16.35;95.95
50430;BME280;36359;41.556;-8.418;2022-12-24T09:48:34;100264.59;;;16.36;93.38
50430;BME280;36359;41.556;-8.418;2022-12-24T09:51:09;100258.47;;;16.34;94.79
50430;BME280;36359;41.556;-8.418;2022-12-24T09:53:54;100269.72;;;16.39;95.83
50430;BME280;36359;41.556;-8.418;2022-12-24T09:56:27;100272.63;;;16.38;93.80
50430;BME280;36359;41.556;-8.418;2022-12-24T10:01:31;100283.47;;;16.31;91.83
50430;BME280;36359;41.556;-8.418;2022-12-24T10:04:03;100286.91;;;16.33;93.68
50430;BME280;36359;41.556;-8.418;2022-12-24T10:06:37;100282.81;;;16.29;94.57
50430;BME280;36359;41.556;-8.418;2022-12-24T10:22:56;100283.41;;;16.24;94.13
50430;BME280;36359;41.556;-8.418;2022-12-24T10:25:37;100272.06;;;16.27;92.83
50430;BME280;36359;41.556;-8.418;2022-12-24T10:28:14;100275.94;;;16.33;93.62
50430;BME280;36359;41.556;-8.418;2022-12-24T10:30:40;100267.53;;;16.34;93.20
50430;BME280;36359;41.556;-8.418;2022-12-24T10:33:37;100275.34;;;16.38;93.61
50430;BME280;36359;41.556;-8.418;2022-12-24T10:35:59;100277.25;;;16.37;93.13
50430;BME280;36359;41.556;-8.418;2022-12-24T10:38:25;100284.72;;;16.43;96.41
50430;BME280;36359;41.556;-8.418;2022-12-24T10:40:54;100276.13;;;16.46;92.66
50430;BME280;36359;41.556;-8.418;2022-12-24T10:43:23;100270.63;;;16.46;90.85
50430;BME280;36359;41.556;-8.418;2022-12-24T10:46:02;100269.31;;;16.57;93.88
50430;BME280;36359;41.556;-8.418;2022-12-24T10:51:04;100272.50;;;16.61;89.82
50430;BME280;36359;41.556;-8.418;2022-12-24T10:56:15;100267.41;;;16.57;90.55
50430;BME280;36359;41.556;-8.418;2022-12-24T10:58:49;100257.78;;;16.62;94.29
50430;BME280;36359;41.556;-8.418;2022-12-24T11:01:15;100247.59;;;16.55;90.15
50430;BME280;36359;41.556;-8.418;2022-12-24T11:03:41;100244.66;;;16.57;93.55
50430;BME280;36359;41.556;-8.418;2022-12-24T11:06:14;100241.34;;;16.62;93.51
50430;BME280;36359;41.556;-8.418;2022-12-24T11:08:43;100236.63;;;16.55;91.18
50430;BME280;36359;41.556;-8.418;2022-12-24T11:11:15;100249.75;;;16.60;92.00
50430;BME280;36359;41.556;-8.418;2022-12-24T11:18:54;100239.72;;;16.67;91.26
50430;BME280;36359;41.556;-8.418;2022-12-24T11:21:28;100242.66;;;16.66;92.78
50430;BME280;36359;41.556;-8.418;2022-12-24T11:26:41;100231.59;;;16.74;92.66
50430;BME280;36359;41.556;-8.418;2022-12-24T11:31:43;100227.63;;;16.76;92.29
50430;BME280;36359;41.556;-8.418;2022-12-24T11:36:53;100227.53;;;16.70;91.37
50430;BME280;36359;41.556;-8.418;2022-12-24T11:39:21;100225.38;;;16.65;93.29
50430;BME280;36359;41.556;-8.418;2022-12-24T11:41:49;100221.97;;;16.63;93.51
50430;BME280;36359;41.556;-8.418;2022-12-24T11:44:23;100212.19;;;16.54;94.04
50430;BME280;36359;41.556;-8.418;2022-12-24T11:46:49;100208.31;;;16.48;94.83
50430;BME280;36359;41.556;-8.418;2022-12-24T11:49:27;100208.31;;;16.48;96.07
50430;BME280;36359;41.556;-8.418;2022-12-24T11:54:42;100204.91;;;16.46;97.00
50430;BME280;36359;41.556;-8.418;2022-12-24T11:57:13;100212.66;;;16.43;97.76
50430;BME280;36359;41.556;-8.418;2022-12-24T11:59:44;100210.50;;;16.38;98.16
50430;BME280;36359;41.556;-8.418;2022-12-24T12:02:24;100214.56;;;16.42;98.57
50430;BME280;36359;41.556;-8.418;2022-12-24T12:04:59;100219.00;;;16.43;99.03
50430;BME280;36359;41.556;-8.418;2022-12-24T12:07:30;100218.63;;;16.31;99.67
50430;BME280;36359;41.556;-8.418;2022-12-24T12:10:03;100223.63;;;16.28;100.00
50430;BME280;36359;41.556;-8.418;2022-12-24T12:12:41;100218.91;;;16.37;99.95
50430;BME280;36359;41.556;-8.418;2022-12-24T12:15:15;100219.09;;;16.35;100.00
50430;BME280;36359;41.556;-8.418;2022-12-24T12:17:50;100213.72;;;16.27;100.00
50430;BME280;36359;41.556;-8.418;2022-12-24T12:20:25;100210.88;;;16.35;100.00
50430;BME280;36359;41.556;-8.418;2022-12-24T12:25:33;100216.84;;;16.24;100.00
50430;BME280;36359;41.556;-8.418;2022-12-24T12:28:02;100207.50;;;16.18;100.00
50430;BME280;36359;41.556;-8.418;2022-12-24T12:30:30;100208.16;;;16.05;100.00
50430;BME280;36359;41.556;-8.418;2022-12-24T12:33:25;100210.03;;;16.05;100.00
50430;BME280;36359;41.556;-8.418;2022-12-24T12:35:56;100204.38;;;16.06;100.00
50430;BME280;36359;41.556;-8.418;2022-12-24T12:38:26;100205.78;;;16.02;100.00
50430;BME280;36359;41.556;-8.418;2022-12-24T12:48:37;100205.31;;;15.84;100.00
50430;BME280;36359;41.556;-8.418;2022-12-24T12:51:11;100197.41;;;15.89;100.00
50430;BME280;36359;41.556;-8.418;2022-12-24T12:56:30;100197.28;;;15.82;100.00
50430;BME280;36359;41.556;-8.418;2022-12-24T13:01:35;100203.41;;;15.70;100.00
50430;BME280;36359;41.556;-8.418;2022-12-24T13:07:26;100196.94;;;15.85;100.00
50430;BME280;36359;41.556;-8.418;2022-12-24T13:12:41;100190.72;;;15.92;100.00
50430;BME280;36359;41.556;-8.418;2022-12-24T13:18:22;100188.44;;;15.95;100.00
50430;BME280;36359;41.556;-8.418;2022-12-24T13:20:50;100183.03;;;15.87;100.00
50430;BME280;36359;41.556;-8.418;2022-12-24T13:23:19;100161.16;;;15.87;100.00
50430;BME280;36359;41.556;-8.418;2022-12-24T13:25:49;100164.94;;;15.86;100.00
50430;BME280;36359;41.556;-8.418;2022-12-24T13:30:49;100161.25;;;15.79;100.00
50430;BME280;36359;41.556;-8.418;2022-12-24T13:36:07;100146.81;;;15.85;100.00
50430;BME280;36359;41.556;-8.418;2022-12-24T13:38:43;100139.28;;;15.87;100.00
50430;BME280;36359;41.556;-8.418;2022-12-24T13:49:39;100125.28;;;16.11;100.00
50430;BME280;36359;41.556;-8.418;2022-12-24T13:54:42;100122.44;;;16.20;100.00
50430;BME280;36359;41.556;-8.418;2022-12-24T13:57:39;100115.66;;;16.16;100.00
50430;BME280;36359;41.556;-8.418;2022-12-24T14:05:33;100105.19;;;16.04;100.00
50430;BME280;36359;41.556;-8.418;2022-12-24T14:08:08;100090.47;;;16.05;100.00
50430;BME280;36359;41.556;-8.418;2022-12-24T14:11:14;100089.84;;;16.03;100.00
50430;BME280;36359;41.556;-8.418;2022-12-24T14:19:12;100095.34;;;15.74;100.00
50430;BME280;36359;41.556;-8.418;2022-12-24T14:22:04;100102.94;;;15.63;100.00
50430;BME280;36359;41.556;-8.418;2022-12-24T14:24:43;100101.63;;;15.59;100.00
50430;BME280;36359;41.556;-8.418;2022-12-24T14:30:06;100112.03;;;15.41;100.00
50430;BME280;36359;41.556;-8.418;2022-12-24T14:32:36;100114.31;;;15.52;100.00
50430;BME280;36359;41.556;-8.418;2022-12-24T14:37:43;100092.81;;;14.96;100.00
50430;BME280;36359;41.556;-8.418;2022-12-24T14:40:21;100095.75;;;14.95;100.00
50430;BME280;36359;41.556;-8.418;2022-12-24T14:42:52;100093.59;;;15.05;100.00
50430;BME280;36359;41.556;-8.418;2022-12-24T14:53:33;100095.44;;;14.90;100.00
50430;BME280;36359;41.556;-8.418;2022-12-24T14:56:17;100098.19;;;14.90;100.00